ADDS METAR Data INFO
IDs: Format: Raw Decoded Include TAF

Data at: 1428 UTC 22 Feb 2018

KOPL 221415Z AUTO 17008KT 7SM BKN012 BKN018 OVC035 23/21 A3027 RMK AO2 T02280210
KOPL 221355Z AUTO 16006KT 7SM BKN012 BKN018 BKN035 23/21 A3026 RMK AO2 LTG DSNT N T02250211
KOPL 221335Z AUTO 15005KT 7SM SCT012 BKN030 OVC039 22/21 A3026 RMK AO2 LTG DSNT N AND W T02200210
KOPL 221315Z AUTO 16004KT 7SM SCT014 BKN030 OVC041 22/21 A3025 RMK AO2 T02150207
KOPL 221255Z AUTO 16006KT 7SM BKN014 BKN022 BKN029 22/21 A3024 RMK AO2 LTG DSNT N T02150206
KOPL 221235Z AUTO 16005KT 7SM SCT016 BKN022 BKN029 22/21 A3024 RMK AO2 T02150206
KOPL 221215Z AUTO 16007KT 7SM SCT022 SCT030 SCT037 22/21 A3023 RMK AO2 LTG DSNT NW T02150207
KOPL 221155Z AUTO 16007KT 7SM SCT018 SCT023 SCT035 22/21 A3023 RMK AO2 LTG DSNT N AND W 70001 T02160207 10228 20215
KOPL 221135Z AUTO 16006KT 7SM SCT020 SCT025 SCT035 22/21 A3022 RMK AO2 LTG DSNT NW T02160208
KOPL 221115Z AUTO 16007KT 7SM SCT011 SCT027 SCT033 22/21 A3022 RMK AO2 LTG DSNT W T02180209
KOPL 221055Z AUTO 16009KT 7SM BKN013 BKN022 OVC033 22/21 A3021 RMK AO2 T02200209
KOPL 221035Z AUTO 16009G14KT 7SM BKN013 BKN024 OVC060 22/21 A3021 RMK AO2 T02220210
KOPL 221015Z AUTO 16008KT 7SM BKN013 BKN018 OVC037 22/21 A3021 RMK AO2 LTG DSNT W AND NW T02220210
KOPL 220955Z AUTO 16007KT 7SM BKN013 BKN017 OVC024 23/21 A3021 RMK AO2 LTG DSNT W T02250211
KOPL 220935Z AUTO 16008KT 7SM BKN013 BKN019 OVC024 23/21 A3020 RMK AO2 LTG DSNT NW T02260211
KOPL 220915Z AUTO 17008KT 130V190 7SM OVC015 23/21 A3020 RMK AO2 LTG DSNT N AND NW T02260210
KOPL 220855Z AUTO 16007KT 10SM VCTS BKN015 OVC019 23/21 A3020 RMK AO2 LTG DSNT N T02270210
KOPL 220835Z AUTO 15010G14KT 10SM BKN015 BKN028 OVC044 23/21 A3020 RMK AO2 T02270210
KOPL 220815Z AUTO 16006KT 10SM OVC015 23/21 A3019 RMK AO2 T02270210
KOPL 220755Z AUTO 16008KT 10SM BKN015 BKN020 OVC033 23/21 A3020 RMK AO2 T02280210
KOPL 220735Z AUTO 16008G14KT 10SM BKN015 BKN020 OVC040 23/21 A3020 RMK AO2 LTG DSNT N AND NW T02270210
KOPL 220715Z AUTO 16009G14KT 10SM BKN015 OVC020 23/21 A3020 RMK AO2 LTG DSNT NW T02260210
KOPL 220655Z AUTO 17009G14KT 10SM BKN015 OVC022 23/21 A3020 RMK AO2 LTG DSNT N AND NW T02270210
KOPL 220635Z AUTO 17009G14KT 10SM BKN015 OVC022 23/21 A3021 RMK AO2 LTG DSNT W THRU N T02270210
KOPL 220615Z AUTO 19011G14KT 150V210 10SM OVC015 23/21 A3020 RMK AO2 T02270210
KOPL 220555Z AUTO 17007KT 10SM OVC015 23/21 A3020 RMK AO2 LTG DSNT W AND NW T02260210 10241 20225 402550215
KOPL 220535Z AUTO 16008G14KT 10SM OVC013 23/21 A3019 RMK AO2 T02250210
KOPL 220515Z AUTO 15010G14KT 10SM OVC013 23/21 A3019 RMK AO2 LTG DSNT W T02250210
KOPL 220455Z AUTO 17013KT 10SM BKN013 BKN029 OVC036 23/21 A3019 RMK AO2 LTG DSNT NW T02260210
KOPL 220435Z AUTO 16009KT 10SM SCT017 BKN031 OVC037 23/21 A3019 RMK AO2 T02300210
KOPL 220415Z AUTO 17010G16KT 140V200 10SM SCT017 BKN031 OVC048 23/21 A3020 RMK AO2 LTG DSNT W AND NW T02300209
KOPL 220355Z AUTO 17009KT 140V200 10SM SCT017 BKN030 BKN035 23/21 A3019 RMK AO2 LTG DSNT W AND NW T02270209
KOPL 220035Z AUTO 18017G21KT 10SM BKN022 BKN027 OVC037 24/21 A3014 RMK AO2 LTG DSNT N AND W T02400206
KOPL 220015Z AUTO 19015G18KT 10SM BKN022 BKN029 OVC037 24/21 A3014 RMK AO2 LTG DSNT N T02400206
KOPL 212355Z AUTO 18014G20KT 10SM BKN024 OVC034 24/21 A3014 RMK AO2 LTG DSNT W AND NW 60001 T02410205 10252 20215
KOPL 212335Z AUTO 18013KT 10SM BKN023 OVC029 24/21 A3013 RMK AO2 LTG DSNT NW T02430206
KOPL 212315Z AUTO 18016G21KT 10SM BKN025 OVC032 24/21 A3012 RMK AO2 LTG DSNT W T02440205
KOPL 212255Z AUTO 18016G23KT 10SM SCT025 BKN033 OVC040 25/20 A3011 RMK AO2 T02460202
KOPL 212235Z AUTO 18018G26KT 10SM SCT027 BKN033 OVC040 25/20 A3011 RMK AO2 LTG DSNT NW T02500201
KOPL 212215Z AUTO 18016G23KT 10SM SCT027 BKN036 OVC090 25/20 A3011 RMK AO2 LTG DSNT W T02500202
KOPL 212155Z AUTO 18018G24KT 10SM BKN027 BKN039 OVC090 25/20 A3011 RMK AO2 LTG DSNT W T02500204
KOPL 212135Z AUTO 19013G21KT 10SM BKN027 BKN035 OVC090 25/20 A3010 RMK AO2 T02500204
KOPL 212115Z AUTO 18020G25KT 10SM SCT022 BKN027 OVC090 25/20 A3010 RMK AO2 LTG DSNT N T02510204
KOPL 212055Z AUTO 17013G20KT 10SM BKN023 OVC100 24/21 A3010 RMK AO2 LTG DSNT N AND W 60001 T02440208
KOPL 212035Z AUTO 18010G17KT 140V200 10SM SCT110 24/20 A3011 RMK AO2 LTG DSNT W T02360203
KOPL 212015Z AUTO 17013G18KT 10SM SCT110 23/20 A3011 RMK AO2 T02310199
KOPL 211955Z AUTO 18011G16KT 10SM SCT030 SCT038 BKN110 22/20 A3011 RMK AO2 LTG DSNT W P0001 T02210196
KOPL 211935Z AUTO 19013G20KT 10SM -DZ SCT010 BKN030 BKN037 22/20 A3011 RMK AO2 LTG DSNT W P0001 T02160196
KOPL 211915Z AUTO 19017G28KT 5SM -RA SCT011 BKN016 OVC026 23/21 A3012 RMK AO2 P0001 T02250206
KOPL 211855Z AUTO 17018G26KT 7SM DZ BKN017 BKN021 OVC027 24/21 A3012 RMK AO2 LTG DSNT SE THRU W T02370214
KOPL 211835Z AUTO 17020G29KT 10SM -RA BKN021 BKN027 24/21 A3012 RMK AO2 LTG DSNT N AND NW T02410210
KOPL 211815Z AUTO 17020G30KT 10SM BKN025 OVC030 25/21 A3012 RMK AO2 T02480205
KOPL 211755Z AUTO 16018G29KT 10SM OVC027 25/20 A3013 RMK AO2 LTG DSNT N S AND W T02520202 10255 20220
KOPL 211735Z AUTO 17024G32KT 10SM OVC027 25/20 A3014 RMK AO2 T02500199
KOPL 211715Z AUTO 16020G32KT 10SM BKN029 OVC036 25/20 A3015 RMK AO2 LTG DSNT S AND NW T02510199
KOPL 211655Z AUTO 15020G25KT 10SM BKN027 BKN035 OVC043 25/20 A3015 RMK AO2 LTG DSNT S THRU NW T02540200
KOPL 211635Z AUTO 15021G29KT 10SM BKN027 BKN041 OVC047 25/20 A3016 RMK AO2 LTG DSNT S THRU W T02520198
KOPL 211615Z AUTO 15016G23KT 10SM BKN025 OVC040 25/20 A3017 RMK AO2 LTG DSNT S AND W T02540201
KOPL 211555Z AUTO 15011G18KT 10SM BKN023 OVC030 25/20 A3017 RMK AO2 LTG DSNT NW T02480203
KOPL 211535Z AUTO 14013G17KT 10SM OVC021 24/21 A3017 RMK AO2 LTG DSNT W T02420205
KOPL 211515Z AUTO 14013KT 10SM OVC021 24/21 A3017 RMK AO2 LTG DSNT S AND W T02400205
KOPL 211455Z AUTO 14012G18KT 10SM OVC019 24/21 A3017 RMK AO2 LTG DSNT SW AND W T02380207
KOPL 211435Z AUTO 14012G17KT 10SM OVC017 23/21 A3017 RMK AO2 T02320208
KOPL 211415Z AUTO 14011G16KT 10SM BKN015 OVC020 23/21 A3017 RMK AO2 LTG DSNT W T02290210
KOPL 211355Z AUTO 13008KT 7SM OVC015 23/21 A3017 RMK AO2 T02250208
KOPL 211335Z AUTO 15008KT 7SM BKN015 OVC019 22/21 A3018 RMK AO2 T02230208
KOPL 211315Z AUTO 14008KT 7SM BKN015 OVC022 22/21 A3017 RMK AO2 LTG DSNT SW AND W T02200207
KOPL 211255Z AUTO 15010KT 7SM OVC015 22/21 A3016 RMK AO2 T02200206
KOPL 210755Z AUTO 16010G15KT 10SM OVC013 23/21 A3016 RMK AO2 T02250209
KOPL 210735Z AUTO 15009G15KT 10SM OVC013 23/21 A3016 RMK AO2 T02250208
KOPL 210715Z AUTO 15008KT 10SM BKN013 22/21 A3015 RMK AO2 T02220207
KOPL 210655Z AUTO 15010KT 10SM BKN015 BKN020 22/21 A3015 RMK AO2 T02230205
KOPL 210635Z AUTO 16009KT 10SM OVC019 23/21 A3014 RMK AO2 T02260205
KOPL 210615Z AUTO 15010KT 10SM BKN017 OVC023 23/21 A3014 RMK AO2 T02250205
KOPL 210555Z AUTO 15010KT 10SM BKN017 OVC023 23/21 A3014 RMK AO2 T02250205 10241 20225 402760188